Terminal Aerodrome Forecast
Issued by NWS

Home | Current Version | Previous Version | Text Only | Print | Product List | Glossary On
Versions: 1 2 3 4 5 6 7 8 9 10 11 12 13 14 15 16 17 18 19 20 21 22 23 24
000
FTUS43 KGLD 301100 RRA
TAFMCK
TAF
KMCK 301153Z 3012/3112 02006KT 5SM BR VCSH BKN007
      TEMPO 3013/3015 P6SM NSW FEW007 BKN070
     FM301500 06007KT P6SM BKN080
     FM302300 VRB03KT P6SM SCT080 BKN250
     FM310900 27007KT P6SM SCT100 SCT250=

USA.gov is the U.S. government's official web portal to all federal, state and local government web resources and services.